sensor_id;sensor_type;location;lat;lon;timestamp;P1;durP1;ratioP1;P2;durP2;ratioP2
42846;SDS011;28495;49.916;14.536;2023-04-08T00:10:57;22.40;;;11.98;;
42846;SDS011;28495;49.916;14.536;2023-04-08T00:16:18;22.55;;;12.38;;
42846;SDS011;28495;49.916;14.536;2023-04-08T00:21:38;17.20;;;11.52;;
42846;SDS011;28495;49.916;14.536;2023-04-08T00:27:00;18.25;;;10.90;;
42846;SDS011;28495;49.916;14.536;2023-04-08T00:32:22;15.65;;;9.90;;
42846;SDS011;28495;49.916;14.536;2023-04-08T00:37:45;19.85;;;11.32;;
42846;SDS011;28495;49.916;14.536;2023-04-08T00:43:07;14.38;;;8.88;;
42846;SDS011;28495;49.916;14.536;2023-04-08T00:48:28;15.77;;;8.90;;
42846;SDS011;28495;49.916;14.536;2023-04-08T00:53:49;12.32;;;8.57;;
42846;SDS011;28495;49.916;14.536;2023-04-08T00:59:09;14.55;;;9.55;;
42846;SDS011;28495;49.916;14.536;2023-04-08T01:10:25;12.73;;;7.28;;
42846;SDS011;28495;49.916;14.536;2023-04-08T01:15:51;12.48;;;7.90;;
42846;SDS011;28495;49.916;14.536;2023-04-08T01:21:14;11.55;;;7.20;;
42846;SDS011;28495;49.916;14.536;2023-04-08T01:26:36;9.00;;;5.63;;
42846;SDS011;28495;49.916;14.536;2023-04-08T01:31:58;12.85;;;7.88;;
42846;SDS011;28495;49.916;14.536;2023-04-08T01:37:21;13.50;;;8.30;;
42846;SDS011;28495;49.916;14.536;2023-04-08T01:42:47;13.40;;;8.23;;
42846;SDS011;28495;49.916;14.536;2023-04-08T01:48:09;13.75;;;8.18;;
42846;SDS011;28495;49.916;14.536;2023-04-08T01:53:32;11.38;;;7.45;;
42846;SDS011;28495;49.916;14.536;2023-04-08T01:58:53;12.20;;;7.15;;
42846;SDS011;28495;49.916;14.536;2023-04-08T02:04:17;12.52;;;7.05;;
42846;SDS011;28495;49.916;14.536;2023-04-08T02:09:38;14.02;;;8.75;;
42846;SDS011;28495;49.916;14.536;2023-04-08T02:14:59;12.43;;;7.30;;
42846;SDS011;28495;49.916;14.536;2023-04-08T02:20:29;9.73;;;6.45;;
42846;SDS011;28495;49.916;14.536;2023-04-08T02:25:56;10.68;;;7.20;;
42846;SDS011;28495;49.916;14.536;2023-04-08T02:31:21;8.98;;;5.80;;
42846;SDS011;28495;49.916;14.536;2023-04-08T02:36:43;8.98;;;5.80;;
42846;SDS011;28495;49.916;14.536;2023-04-08T02:42:06;8.57;;;5.82;;
42846;SDS011;28495;49.916;14.536;2023-04-08T02:47:29;10.70;;;6.22;;
42846;SDS011;28495;49.916;14.536;2023-04-08T02:52:50;11.30;;;6.70;;
42846;SDS011;28495;49.916;14.536;2023-04-08T02:58:11;9.40;;;6.20;;
42846;SDS011;28495;49.916;14.536;2023-04-08T03:03:31;9.95;;;6.47;;
42846;SDS011;28495;49.916;14.536;2023-04-08T03:08:52;8.90;;;5.38;;
42846;SDS011;28495;49.916;14.536;2023-04-08T03:14:13;6.05;;;4.28;;
42846;SDS011;28495;49.916;14.536;2023-04-08T03:19:34;8.45;;;5.55;;
42846;SDS011;28495;49.916;14.536;2023-04-08T03:24:54;8.70;;;5.22;;
42846;SDS011;28495;49.916;14.536;2023-04-08T03:30:15;9.82;;;6.35;;
42846;SDS011;28495;49.916;14.536;2023-04-08T03:35:36;9.57;;;6.93;;
42846;SDS011;28495;49.916;14.536;2023-04-08T03:40:58;9.82;;;5.93;;
42846;SDS011;28495;49.916;14.536;2023-04-08T03:46:18;6.03;;;4.25;;
42846;SDS011;28495;49.916;14.536;2023-04-08T03:51:39;6.70;;;4.60;;
42846;SDS011;28495;49.916;14.536;2023-04-08T03:57:00;7.03;;;4.97;;
42846;SDS011;28495;49.916;14.536;2023-04-08T04:02:21;6.10;;;4.10;;
42846;SDS011;28495;49.916;14.536;2023-04-08T04:07:41;7.65;;;5.45;;
42846;SDS011;28495;49.916;14.536;2023-04-08T04:13:02;7.32;;;5.03;;
42846;SDS011;28495;49.916;14.536;2023-04-08T04:18:23;6.85;;;4.70;;
42846;SDS011;28495;49.916;14.536;2023-04-08T04:23:43;7.45;;;5.35;;
42846;SDS011;28495;49.916;14.536;2023-04-08T04:29:04;6.90;;;4.80;;
42846;SDS011;28495;49.916;14.536;2023-04-08T04:34:25;5.93;;;4.50;;
42846;SDS011;28495;49.916;14.536;2023-04-08T04:39:46;7.35;;;4.72;;
42846;SDS011;28495;49.916;14.536;2023-04-08T04:45:07;8.75;;;5.38;;
42846;SDS011;28495;49.916;14.536;2023-04-08T04:50:29;8.15;;;5.72;;
42846;SDS011;28495;49.916;14.536;2023-04-08T04:55:50;6.07;;;5.03;;
42846;SDS011;28495;49.916;14.536;2023-04-08T05:01:11;5.55;;;4.05;;
42846;SDS011;28495;49.916;14.536;2023-04-08T05:06:32;5.47;;;3.97;;
42846;SDS011;28495;49.916;14.536;2023-04-08T05:11:53;7.93;;;3.95;;
42846;SDS011;28495;49.916;14.536;2023-04-08T05:17:14;5.30;;;3.92;;
42846;SDS011;28495;49.916;14.536;2023-04-08T05:22:35;4.78;;;3.47;;
42846;SDS011;28495;49.916;14.536;2023-04-08T05:27:56;3.80;;;3.28;;
42846;SDS011;28495;49.916;14.536;2023-04-08T05:33:17;4.05;;;2.97;;
42846;SDS011;28495;49.916;14.536;2023-04-08T05:38:39;3.35;;;2.38;;
42846;SDS011;28495;49.916;14.536;2023-04-08T05:44:02;2.72;;;1.98;;
42846;SDS011;28495;49.916;14.536;2023-04-08T05:49:23;2.55;;;1.85;;
42846;SDS011;28495;49.916;14.536;2023-04-08T05:54:43;2.78;;;1.90;;
42846;SDS011;28495;49.916;14.536;2023-04-08T06:00:05;2.72;;;2.33;;
42846;SDS011;28495;49.916;14.536;2023-04-08T06:05:30;2.35;;;2.03;;
42846;SDS011;28495;49.916;14.536;2023-04-08T06:10:51;2.85;;;2.22;;
42846;SDS011;28495;49.916;14.536;2023-04-08T06:16:13;4.30;;;2.65;;
42846;SDS011;28495;49.916;14.536;2023-04-08T06:21:36;3.45;;;2.47;;
42846;SDS011;28495;49.916;14.536;2023-04-08T06:26:56;3.75;;;2.25;;
42846;SDS011;28495;49.916;14.536;2023-04-08T06:32:18;2.88;;;2.10;;
42846;SDS011;28495;49.916;14.536;2023-04-08T06:37:38;3.78;;;2.83;;
42846;SDS011;28495;49.916;14.536;2023-04-08T06:42:59;2.92;;;1.83;;
42846;SDS011;28495;49.916;14.536;2023-04-08T06:48:27;4.32;;;2.10;;
42846;SDS011;28495;49.916;14.536;2023-04-08T06:53:50;2.78;;;2.15;;
42846;SDS011;28495;49.916;14.536;2023-04-08T06:59:10;4.90;;;3.10;;
42846;SDS011;28495;49.916;14.536;2023-04-08T07:04:31;2.50;;;2.10;;
42846;SDS011;28495;49.916;14.536;2023-04-08T07:09:52;4.18;;;3.22;;
42846;SDS011;28495;49.916;14.536;2023-04-08T07:15:13;3.90;;;2.95;;
42846;SDS011;28495;49.916;14.536;2023-04-08T07:20:34;2.90;;;2.40;;
42846;SDS011;28495;49.916;14.536;2023-04-08T07:26:01;4.57;;;2.80;;
42846;SDS011;28495;49.916;14.536;2023-04-08T07:31:23;4.05;;;2.97;;
42846;SDS011;28495;49.916;14.536;2023-04-08T07:36:44;5.07;;;3.05;;
42846;SDS011;28495;49.916;14.536;2023-04-08T07:42:05;3.95;;;2.53;;
42846;SDS011;28495;49.916;14.536;2023-04-08T07:47:26;2.60;;;1.88;;
42846;SDS011;28495;49.916;14.536;2023-04-08T07:52:48;5.70;;;3.80;;
42846;SDS011;28495;49.916;14.536;2023-04-08T07:58:08;3.97;;;3.03;;
42846;SDS011;28495;49.916;14.536;2023-04-08T08:03:29;2.83;;;1.90;;
42846;SDS011;28495;49.916;14.536;2023-04-08T08:08:53;3.30;;;2.70;;
42846;SDS011;28495;49.916;14.536;2023-04-08T08:14:13;3.53;;;2.67;;
42846;SDS011;28495;49.916;14.536;2023-04-08T08:19:35;4.05;;;2.90;;
42846;SDS011;28495;49.916;14.536;2023-04-08T08:24:56;5.03;;;3.53;;
42846;SDS011;28495;49.916;14.536;2023-04-08T08:30:17;5.25;;;3.65;;
42846;SDS011;28495;49.916;14.536;2023-04-08T08:35:40;6.05;;;4.30;;
42846;SDS011;28495;49.916;14.536;2023-04-08T08:41:01;7.70;;;4.18;;
42846;SDS011;28495;49.916;14.536;2023-04-08T08:46:23;6.43;;;4.35;;
42846;SDS011;28495;49.916;14.536;2023-04-08T08:51:44;7.28;;;4.35;;
42846;SDS011;28495;49.916;14.536;2023-04-08T08:57:15;3.90;;;3.00;;
42846;SDS011;28495;49.916;14.536;2023-04-08T09:02:39;6.60;;;4.57;;
42846;SDS011;28495;49.916;14.536;2023-04-08T09:08:00;9.80;;;5.45;;
42846;SDS011;28495;49.916;14.536;2023-04-08T09:13:21;9.82;;;5.78;;
42846;SDS011;28495;49.916;14.536;2023-04-08T09:18:46;11.90;;;6.47;;
42846;SDS011;28495;49.916;14.536;2023-04-08T09:24:09;9.38;;;5.72;;
42846;SDS011;28495;49.916;14.536;2023-04-08T09:29:47;13.15;;;6.72;;
42846;SDS011;28495;49.916;14.536;2023-04-08T09:35:08;12.55;;;6.55;;
42846;SDS011;28495;49.916;14.536;2023-04-08T09:40:29;9.55;;;6.25;;
42846;SDS011;28495;49.916;14.536;2023-04-08T09:45:55;8.55;;;6.28;;
42846;SDS011;28495;49.916;14.536;2023-04-08T09:51:18;11.07;;;6.50;;
42846;SDS011;28495;49.916;14.536;2023-04-08T09:56:43;12.40;;;7.05;;
42846;SDS011;28495;49.916;14.536;2023-04-08T10:02:18;11.25;;;6.32;;
42846;SDS011;28495;49.916;14.536;2023-04-08T10:07:49;9.07;;;5.80;;
42846;SDS011;28495;49.916;14.536;2023-04-08T10:13:11;11.32;;;6.72;;
42846;SDS011;28495;49.916;14.536;2023-04-08T10:18:32;8.48;;;5.15;;
42846;SDS011;28495;49.916;14.536;2023-04-08T10:23:54;10.93;;;6.70;;
42846;SDS011;28495;49.916;14.536;2023-04-08T10:34:50;11.70;;;7.13;;
42846;SDS011;28495;49.916;14.536;2023-04-08T10:40:19;9.45;;;6.40;;
42846;SDS011;28495;49.916;14.536;2023-04-08T10:45:40;8.48;;;5.00;;
42846;SDS011;28495;49.916;14.536;2023-04-08T10:51:02;7.43;;;4.70;;
42846;SDS011;28495;49.916;14.536;2023-04-08T10:56:25;9.02;;;4.63;;
42846;SDS011;28495;49.916;14.536;2023-04-08T11:01:48;7.32;;;4.60;;
42846;SDS011;28495;49.916;14.536;2023-04-08T11:07:09;7.15;;;5.10;;
42846;SDS011;28495;49.916;14.536;2023-04-08T11:12:30;6.65;;;3.75;;
42846;SDS011;28495;49.916;14.536;2023-04-08T11:17:51;4.82;;;3.50;;
42846;SDS011;28495;49.916;14.536;2023-04-08T11:23:13;5.63;;;4.35;;
42846;SDS011;28495;49.916;14.536;2023-04-08T11:28:34;8.55;;;5.32;;
42846;SDS011;28495;49.916;14.536;2023-04-08T11:33:56;7.28;;;4.70;;
42846;SDS011;28495;49.916;14.536;2023-04-08T11:39:16;6.45;;;4.40;;
42846;SDS011;28495;49.916;14.536;2023-04-08T11:44:37;7.35;;;5.32;;
42846;SDS011;28495;49.916;14.536;2023-04-08T11:49:58;7.05;;;5.28;;
42846;SDS011;28495;49.916;14.536;2023-04-08T11:55:22;6.80;;;5.32;;
42846;SDS011;28495;49.916;14.536;2023-04-08T12:00:47;7.80;;;5.15;;
42846;SDS011;28495;49.916;14.536;2023-04-08T12:06:08;8.50;;;6.35;;
42846;SDS011;28495;49.916;14.536;2023-04-08T12:11:29;8.77;;;6.38;;
42846;SDS011;28495;49.916;14.536;2023-04-08T12:16:57;9.07;;;6.00;;
42846;SDS011;28495;49.916;14.536;2023-04-08T12:22:19;8.20;;;4.97;;
42846;SDS011;28495;49.916;14.536;2023-04-08T12:27:40;9.95;;;5.95;;
42846;SDS011;28495;49.916;14.536;2023-04-08T12:33:01;7.13;;;5.05;;
42846;SDS011;28495;49.916;14.536;2023-04-08T12:38:22;8.90;;;6.45;;
42846;SDS011;28495;49.916;14.536;2023-04-08T12:43:43;8.23;;;5.30;;
42846;SDS011;28495;49.916;14.536;2023-04-08T12:49:03;9.57;;;6.00;;
42846;SDS011;28495;49.916;14.536;2023-04-08T12:54:25;9.02;;;5.97;;
42846;SDS011;28495;49.916;14.536;2023-04-08T12:59:46;8.90;;;5.55;;
42846;SDS011;28495;49.916;14.536;2023-04-08T13:05:07;8.23;;;5.60;;
42846;SDS011;28495;49.916;14.536;2023-04-08T13:10:28;10.40;;;7.10;;
42846;SDS011;28495;49.916;14.536;2023-04-08T13:15:49;6.72;;;5.72;;
42846;SDS011;28495;49.916;14.536;2023-04-08T13:21:11;8.05;;;5.80;;
42846;SDS011;28495;49.916;14.536;2023-04-08T13:26:32;6.38;;;5.22;;
42846;SDS011;28495;49.916;14.536;2023-04-08T13:31:53;6.13;;;5.43;;
42846;SDS011;28495;49.916;14.536;2023-04-08T13:37:13;7.13;;;5.72;;
42846;SDS011;28495;49.916;14.536;2023-04-08T13:42:34;8.15;;;6.47;;
42846;SDS011;28495;49.916;14.536;2023-04-08T13:47:55;12.68;;;7.38;;
42846;SDS011;28495;49.916;14.536;2023-04-08T13:53:16;7.40;;;5.40;;
42846;SDS011;28495;49.916;14.536;2023-04-08T13:58:37;7.38;;;5.25;;
42846;SDS011;28495;49.916;14.536;2023-04-08T14:03:58;7.10;;;5.78;;
42846;SDS011;28495;49.916;14.536;2023-04-08T14:09:19;6.78;;;5.07;;
42846;SDS011;28495;49.916;14.536;2023-04-08T14:14:40;7.35;;;5.75;;
42846;SDS011;28495;49.916;14.536;2023-04-08T14:20:00;9.15;;;6.47;;
42846;SDS011;28495;49.916;14.536;2023-04-08T14:25:22;8.82;;;7.03;;
42846;SDS011;28495;49.916;14.536;2023-04-08T14:30:43;8.23;;;5.70;;
42846;SDS011;28495;49.916;14.536;2023-04-08T14:36:04;8.50;;;5.47;;
42846;SDS011;28495;49.916;14.536;2023-04-08T14:41:25;10.15;;;6.28;;
42846;SDS011;28495;49.916;14.536;2023-04-08T14:46:46;7.90;;;5.13;;
42846;SDS011;28495;49.916;14.536;2023-04-08T14:52:07;9.23;;;6.55;;
42846;SDS011;28495;49.916;14.536;2023-04-08T14:57:28;9.13;;;7.15;;
42846;SDS011;28495;49.916;14.536;2023-04-08T15:02:48;8.27;;;6.03;;
42846;SDS011;28495;49.916;14.536;2023-04-08T15:08:10;9.13;;;6.60;;
42846;SDS011;28495;49.916;14.536;2023-04-08T15:13:31;11.38;;;7.13;;
42846;SDS011;28495;49.916;14.536;2023-04-08T15:18:52;9.30;;;7.22;;
42846;SDS011;28495;49.916;14.536;2023-04-08T15:24:12;10.77;;;7.38;;
42846;SDS011;28495;49.916;14.536;2023-04-08T15:29:33;9.57;;;6.63;;
42846;SDS011;28495;49.916;14.536;2023-04-08T15:34:54;9.93;;;7.47;;
42846;SDS011;28495;49.916;14.536;2023-04-08T15:40:15;12.57;;;7.65;;
42846;SDS011;28495;49.916;14.536;2023-04-08T15:45:40;8.80;;;5.47;;
42846;SDS011;28495;49.916;14.536;2023-04-08T15:51:05;12.38;;;7.75;;
42846;SDS011;28495;49.916;14.536;2023-04-08T15:56:32;11.25;;;7.57;;
42846;SDS011;28495;49.916;14.536;2023-04-08T16:01:53;9.68;;;6.93;;
42846;SDS011;28495;49.916;14.536;2023-04-08T16:07:14;11.73;;;8.05;;
42846;SDS011;28495;49.916;14.536;2023-04-08T16:12:35;10.00;;;7.68;;
42846;SDS011;28495;49.916;14.536;2023-04-08T16:17:56;95.43;;;34.58;;
42846;SDS011;28495;49.916;14.536;2023-04-08T16:23:18;14.23;;;8.95;;
42846;SDS011;28495;49.916;14.536;2023-04-08T16:28:39;34.22;;;15.68;;
42846;SDS011;28495;49.916;14.536;2023-04-08T16:34:00;13.43;;;8.13;;
42846;SDS011;28495;49.916;14.536;2023-04-08T16:39:21;11.55;;;7.80;;
42846;SDS011;28495;49.916;14.536;2023-04-08T16:44:42;10.50;;;7.38;;
42846;SDS011;28495;49.916;14.536;2023-04-08T16:50:03;13.57;;;8.75;;
42846;SDS011;28495;49.916;14.536;2023-04-08T16:55:24;15.10;;;8.23;;
42846;SDS011;28495;49.916;14.536;2023-04-08T17:00:45;14.48;;;10.65;;
42846;SDS011;28495;49.916;14.536;2023-04-08T17:06:07;11.43;;;7.53;;
42846;SDS011;28495;49.916;14.536;2023-04-08T17:11:29;15.13;;;10.63;;
42846;SDS011;28495;49.916;14.536;2023-04-08T17:16:50;12.15;;;9.40;;
42846;SDS011;28495;49.916;14.536;2023-04-08T17:22:11;12.63;;;8.63;;
42846;SDS011;28495;49.916;14.536;2023-04-08T17:27:31;14.63;;;8.88;;
42846;SDS011;28495;49.916;14.536;2023-04-08T17:32:52;14.35;;;10.00;;
42846;SDS011;28495;49.916;14.536;2023-04-08T17:38:13;15.50;;;9.48;;
42846;SDS011;28495;49.916;14.536;2023-04-08T17:43:34;14.05;;;10.10;;
42846;SDS011;28495;49.916;14.536;2023-04-08T17:48:55;13.80;;;9.45;;
42846;SDS011;28495;49.916;14.536;2023-04-08T17:54:16;12.73;;;8.82;;
42846;SDS011;28495;49.916;14.536;2023-04-08T17:59:37;14.40;;;9.60;;
42846;SDS011;28495;49.916;14.536;2023-04-08T18:04:58;15.32;;;10.18;;
42846;SDS011;28495;49.916;14.536;2023-04-08T18:10:20;16.80;;;10.35;;
42846;SDS011;28495;49.916;14.536;2023-04-08T18:15:42;15.10;;;9.95;;
42846;SDS011;28495;49.916;14.536;2023-04-08T18:21:03;23.50;;;15.75;;
42846;SDS011;28495;49.916;14.536;2023-04-08T18:26:24;18.23;;;10.80;;
42846;SDS011;28495;49.916;14.536;2023-04-08T18:31:45;21.92;;;10.85;;
42846;SDS011;28495;49.916;14.536;2023-04-08T18:37:06;22.80;;;12.77;;
42846;SDS011;28495;49.916;14.536;2023-04-08T18:42:27;39.47;;;18.85;;
42846;SDS011;28495;49.916;14.536;2023-04-08T18:47:47;29.90;;;14.40;;
42846;SDS011;28495;49.916;14.536;2023-04-08T18:53:09;35.97;;;18.00;;
42846;SDS011;28495;49.916;14.536;2023-04-08T18:58:30;20.90;;;12.00;;
42846;SDS011;28495;49.916;14.536;2023-04-08T19:03:51;20.42;;;11.50;;
42846;SDS011;28495;49.916;14.536;2023-04-08T19:09:13;18.02;;;10.20;;
42846;SDS011;28495;49.916;14.536;2023-04-08T19:14:33;21.67;;;12.13;;
42846;SDS011;28495;49.916;14.536;2023-04-08T19:19:54;22.75;;;12.27;;
42846;SDS011;28495;49.916;14.536;2023-04-08T19:25:16;20.25;;;11.43;;
42846;SDS011;28495;49.916;14.536;2023-04-08T19:30:37;16.13;;;10.15;;
42846;SDS011;28495;49.916;14.536;2023-04-08T19:35:58;21.23;;;12.02;;
42846;SDS011;28495;49.916;14.536;2023-04-08T19:41:19;22.15;;;11.52;;
42846;SDS011;28495;49.916;14.536;2023-04-08T19:46:40;23.40;;;12.65;;
42846;SDS011;28495;49.916;14.536;2023-04-08T19:52:01;23.30;;;12.57;;
42846;SDS011;28495;49.916;14.536;2023-04-08T19:57:22;24.58;;;12.50;;
42846;SDS011;28495;49.916;14.536;2023-04-08T20:02:44;18.48;;;10.27;;
42846;SDS011;28495;49.916;14.536;2023-04-08T20:08:05;22.45;;;12.63;;
42846;SDS011;28495;49.916;14.536;2023-04-08T20:13:26;20.02;;;11.52;;
42846;SDS011;28495;49.916;14.536;2023-04-08T20:18:48;20.13;;;11.25;;
42846;SDS011;28495;49.916;14.536;2023-04-08T20:24:09;18.00;;;10.82;;
42846;SDS011;28495;49.916;14.536;2023-04-08T20:29:30;20.95;;;10.98;;
42846;SDS011;28495;49.916;14.536;2023-04-08T20:34:51;18.75;;;10.45;;
42846;SDS011;28495;49.916;14.536;2023-04-08T20:40:12;20.33;;;11.80;;
42846;SDS011;28495;49.916;14.536;2023-04-08T20:45:36;23.42;;;13.50;;
42846;SDS011;28495;49.916;14.536;2023-04-08T20:50:57;21.08;;;11.82;;
42846;SDS011;28495;49.916;14.536;2023-04-08T20:56:18;23.10;;;12.48;;
42846;SDS011;28495;49.916;14.536;2023-04-08T21:01:38;25.27;;;13.32;;
42846;SDS011;28495;49.916;14.536;2023-04-08T21:07:00;20.33;;;11.60;;
42846;SDS011;28495;49.916;14.536;2023-04-08T21:12:21;18.67;;;11.15;;
42846;SDS011;28495;49.916;14.536;2023-04-08T21:17:42;22.80;;;12.07;;
42846;SDS011;28495;49.916;14.536;2023-04-08T21:23:02;21.83;;;12.75;;
42846;SDS011;28495;49.916;14.536;2023-04-08T21:28:23;21.10;;;12.25;;
42846;SDS011;28495;49.916;14.536;2023-04-08T21:33:44;19.42;;;11.00;;
42846;SDS011;28495;49.916;14.536;2023-04-08T21:39:05;19.23;;;11.25;;
42846;SDS011;28495;49.916;14.536;2023-04-08T21:44:26;22.33;;;11.90;;
42846;SDS011;28495;49.916;14.536;2023-04-08T21:49:47;20.73;;;11.88;;
42846;SDS011;28495;49.916;14.536;2023-04-08T21:55:08;23.00;;;13.10;;
42846;SDS011;28495;49.916;14.536;2023-04-08T22:00:29;24.38;;;13.05;;
42846;SDS011;28495;49.916;14.536;2023-04-08T22:05:50;22.30;;;11.95;;
42846;SDS011;28495;49.916;14.536;2023-04-08T22:11:11;22.58;;;12.55;;
42846;SDS011;28495;49.916;14.536;2023-04-08T22:16:32;24.83;;;14.13;;
42846;SDS011;28495;49.916;14.536;2023-04-08T22:21:53;25.40;;;15.27;;
42846;SDS011;28495;49.916;14.536;2023-04-08T22:27:14;25.05;;;14.27;;
42846;SDS011;28495;49.916;14.536;2023-04-08T22:32:35;32.20;;;17.63;;
42846;SDS011;28495;49.916;14.536;2023-04-08T22:37:55;37.75;;;19.45;;
42846;SDS011;28495;49.916;14.536;2023-04-08T22:43:16;30.13;;;15.63;;
42846;SDS011;28495;49.916;14.536;2023-04-08T22:48:37;25.23;;;14.20;;
42846;SDS011;28495;49.916;14.536;2023-04-08T22:53:58;28.17;;;15.23;;
42846;SDS011;28495;49.916;14.536;2023-04-08T22:59:18;27.52;;;15.00;;
42846;SDS011;28495;49.916;14.536;2023-04-08T23:04:39;26.92;;;15.55;;
42846;SDS011;28495;49.916;14.536;2023-04-08T23:10:00;31.90;;;17.55;;
42846;SDS011;28495;49.916;14.536;2023-04-08T23:15:21;30.30;;;16.45;;
42846;SDS011;28495;49.916;14.536;2023-04-08T23:20:49;29.67;;;17.13;;
42846;SDS011;28495;49.916;14.536;2023-04-08T23:26:17;25.60;;;14.35;;
42846;SDS011;28495;49.916;14.536;2023-04-08T23:31:39;31.42;;;16.50;;
42846;SDS011;28495;49.916;14.536;2023-04-08T23:37:00;29.38;;;16.63;;
42846;SDS011;28495;49.916;14.536;2023-04-08T23:42:20;23.27;;;14.10;;
42846;SDS011;28495;49.916;14.536;2023-04-08T23:47:46;27.20;;;15.85;;
42846;SDS011;28495;49.916;14.536;2023-04-08T23:53:07;29.27;;;15.82;;
42846;SDS011;28495;49.916;14.536;2023-04-08T23:58:28;33.92;;;17.42;;
